createdAt,value
2022-08-27T00:01:22.611Z,25.07
2022-08-27T00:04:07.270Z,25.05
2022-08-27T00:06:52.119Z,25.04
2022-08-27T00:09:48.124Z,25.02
2022-08-27T00:12:25.446Z,25.01
2022-08-27T00:15:19.559Z,24.99
2022-08-27T00:18:14.272Z,24.94
2022-08-27T00:21:08.515Z,24.90
2022-08-27T00:23:45.491Z,24.87
2022-08-27T00:26:43.188Z,24.85
2022-08-27T00:29:20.378Z,24.83
2022-08-27T00:32:14.332Z,24.81
2022-08-27T00:34:52.151Z,24.77
2022-08-27T00:37:25.920Z,24.73
2022-08-27T00:39:59.676Z,24.72
2022-08-27T00:42:53.803Z,24.69
2022-08-27T00:45:27.872Z,24.64
2022-08-27T00:48:03.252Z,24.63
2022-08-27T00:50:39.236Z,24.61
2022-08-27T00:53:17.603Z,24.56
2022-08-27T00:55:56.837Z,24.52
2022-08-27T00:58:53.297Z,24.53
2022-08-27T01:01:31.033Z,24.52
2022-08-27T01:04:25.018Z,24.51
2022-08-27T01:06:58.900Z,24.49
2022-08-27T01:09:53.831Z,24.47
2022-08-27T01:12:27.578Z,24.45
2022-08-27T01:15:02.116Z,24.43
2022-08-27T01:17:36.404Z,24.40
2022-08-27T01:20:16.420Z,24.38
2022-08-27T01:23:12.067Z,24.35
2022-08-27T01:25:47.182Z,24.33
2022-08-27T01:28:35.813Z,24.31
2022-08-27T01:31:13.534Z,24.26
2022-08-27T01:34:09.195Z,24.22
2022-08-27T01:36:42.836Z,24.19
2022-08-27T01:39:25.849Z,24.18
2022-08-27T01:42:06.893Z,24.13
2022-08-27T01:44:51.282Z,24.10
2022-08-27T01:47:31.442Z,24.06
2022-08-27T01:50:11.249Z,24.02
2022-08-27T01:52:45.370Z,23.98
2022-08-27T01:55:21.046Z,23.93
2022-08-27T01:57:55.455Z,23.89
2022-08-27T02:00:32.064Z,23.85
2022-08-27T02:03:06.796Z,23.84
2022-08-27T02:05:44.936Z,23.84
2022-08-27T02:08:22.692Z,23.85
2022-08-27T02:10:56.628Z,23.83
2022-08-27T02:13:30.442Z,23.80
2022-08-27T02:16:04.450Z,23.76
2022-08-27T02:18:41.753Z,23.71
2022-08-27T02:21:20.636Z,23.66
2022-08-27T02:23:55.515Z,23.59
2022-08-27T02:26:32.048Z,23.56
2022-08-27T02:29:06.119Z,23.54
2022-08-27T02:32:00.268Z,23.49
2022-08-27T02:34:33.343Z,23.46
2022-08-27T02:37:07.671Z,23.46
2022-08-27T02:39:45.592Z,23.44
2022-08-27T02:42:19.913Z,23.39
2022-08-27T02:44:57.191Z,23.34
2022-08-27T02:47:39.514Z,23.30
2022-08-27T02:50:17.569Z,23.29
2022-08-27T02:52:51.284Z,23.29
2022-08-27T02:55:25.587Z,23.27
2022-08-27T02:57:59.357Z,23.23
2022-08-27T03:00:35.520Z,23.23
2022-08-27T03:03:11.039Z,23.21
2022-08-27T03:05:46.185Z,23.22
2022-08-27T03:08:19.596Z,23.16
2022-08-27T03:10:57.091Z,23.16
2022-08-27T03:13:32.695Z,23.15
2022-08-27T03:16:06.671Z,23.17
2022-08-27T03:18:43.843Z,23.16
2022-08-27T03:21:24.598Z,23.17
2022-08-27T03:24:18.693Z,23.16
2022-08-27T03:26:54.940Z,23.11
2022-08-27T03:29:31.435Z,23.10
2022-08-27T03:32:10.708Z,23.07
2022-08-27T03:34:58.584Z,23.01
2022-08-27T03:37:32.336Z,22.95
2022-08-27T03:40:08.466Z,22.93
2022-08-27T03:42:42.475Z,22.93
2022-08-27T03:45:27.668Z,22.92
2022-08-27T03:48:01.359Z,22.93
2022-08-27T03:50:35.171Z,22.93
2022-08-27T03:53:08.992Z,22.94
2022-08-27T03:55:42.867Z,22.94
2022-08-27T03:58:19.760Z,22.91
2022-08-27T04:00:53.605Z,22.90
2022-08-27T04:03:27.364Z,22.89
2022-08-27T04:06:03.802Z,22.91
2022-08-27T04:08:39.632Z,22.92
2022-08-27T04:11:34.995Z,22.94
2022-08-27T04:14:20.756Z,22.96
2022-08-27T04:17:20.959Z,22.96
2022-08-27T04:19:56.241Z,22.96
2022-08-27T04:22:30.677Z,22.97
2022-08-27T04:25:04.631Z,22.93
2022-08-27T04:27:47.609Z,22.92
2022-08-27T04:30:21.544Z,22.93
2022-08-27T04:32:55.342Z,22.98
2022-08-27T04:35:29.099Z,23.05
2022-08-27T04:38:02.923Z,23.08
2022-08-27T04:40:56.057Z,23.08
2022-08-27T04:43:32.066Z,23.11
2022-08-27T04:46:09.260Z,23.13
2022-08-27T04:48:46.068Z,23.16
2022-08-27T04:51:28.215Z,23.21
2022-08-27T04:54:03.115Z,23.27
2022-08-27T04:56:38.309Z,23.32
2022-08-27T04:59:13.385Z,23.37
2022-08-27T05:02:11.224Z,23.44
2022-08-27T05:04:45.254Z,23.51
2022-08-27T05:07:19.674Z,23.56
2022-08-27T05:09:55.928Z,23.66
2022-08-27T05:12:29.163Z,23.87
2022-08-27T05:15:02.994Z,24.06
2022-08-27T05:18:01.211Z,24.21
2022-08-27T05:20:35.743Z,24.59
2022-08-27T05:23:09.393Z,24.79
2022-08-27T05:25:52.555Z,24.82
2022-08-27T05:28:27.764Z,24.84
2022-08-27T05:31:10.232Z,24.90
2022-08-27T05:33:47.902Z,24.92
2022-08-27T05:36:23.208Z,24.92
2022-08-27T05:38:58.320Z,24.97
2022-08-27T05:41:33.989Z,25.06
2022-08-27T05:44:40.012Z,25.14
2022-08-27T05:47:23.324Z,25.24
2022-08-27T05:49:57.362Z,25.33
2022-08-27T05:52:41.342Z,25.41
2022-08-27T05:55:15.495Z,25.67
2022-08-27T05:57:48.921Z,26.05
2022-08-27T06:00:40.415Z,26.43
2022-08-27T06:03:17.423Z,26.63
2022-08-27T06:05:51.178Z,26.69
2022-08-27T06:08:25.269Z,26.62
2022-08-27T06:11:00.203Z,26.63
2022-08-27T06:13:34.568Z,26.74
2022-08-27T06:16:14.618Z,26.93
2022-08-27T06:18:49.859Z,27.31
2022-08-27T06:21:24.962Z,27.64
2022-08-27T06:23:58.943Z,27.79
2022-08-27T06:26:32.566Z,27.91
2022-08-27T06:29:10.250Z,28.09
2022-08-27T06:31:44.156Z,28.61
2022-08-27T06:34:21.033Z,29.12
2022-08-27T06:36:55.028Z,29.40
2022-08-27T06:39:31.733Z,29.57
2022-08-27T06:42:06.723Z,30.55
2022-08-27T06:44:40.582Z,32.44
2022-08-27T06:47:14.498Z,34.20
2022-08-27T06:49:48.383Z,35.86
2022-08-27T06:52:21.946Z,37.49
2022-08-27T06:54:55.980Z,39.01
2022-08-27T06:57:30.206Z,40.39
2022-08-27T07:00:05.046Z,41.53
2022-08-27T07:02:39.178Z,42.09
2022-08-27T07:05:13.481Z,42.42
2022-08-27T07:07:48.810Z,43.65
2022-08-27T07:10:22.471Z,44.49
2022-08-27T07:12:55.699Z,45.40
2022-08-27T07:15:29.480Z,46.18
2022-08-27T07:18:06.051Z,46.90
2022-08-27T07:20:41.673Z,47.67
2022-08-27T07:23:15.332Z,48.39
2022-08-27T07:25:48.601Z,49.07
2022-08-27T07:28:22.255Z,49.56
2022-08-27T07:30:55.943Z,49.90
2022-08-27T07:33:31.813Z,50.24
2022-08-27T07:36:05.500Z,50.24
2022-08-27T07:38:42.251Z,50.56
2022-08-27T07:41:16.312Z,50.31
2022-08-27T07:44:07.268Z,49.16
2022-08-27T07:46:42.575Z,48.31
2022-08-27T07:49:19.564Z,47.85
2022-08-27T07:51:55.958Z,47.55
2022-08-27T07:54:29.593Z,46.60
2022-08-27T07:57:02.823Z,45.22
2022-08-27T07:59:36.273Z,43.98
2022-08-27T08:02:09.675Z,42.71
2022-08-27T08:04:43.057Z,41.70
2022-08-27T08:07:16.449Z,41.04
2022-08-27T08:09:49.822Z,40.39
2022-08-27T08:12:26.574Z,39.99
2022-08-27T08:14:59.709Z,40.00
2022-08-27T08:17:38.347Z,40.90
2022-08-27T08:20:24.140Z,42.09
2022-08-27T08:23:04.470Z,42.11
2022-08-27T08:25:43.376Z,41.54
2022-08-27T08:28:16.730Z,40.63
2022-08-27T08:30:50.513Z,39.75
2022-08-27T08:33:24.635Z,39.06
2022-08-27T08:36:03.849Z,38.43
2022-08-27T08:38:38.021Z,37.85
2022-08-27T08:41:27.948Z,37.52
2022-08-27T08:44:10.379Z,37.49
2022-08-27T08:46:51.557Z,37.73
2022-08-27T08:49:37.263Z,38.11
2022-08-27T08:52:31.316Z,38.25
2022-08-27T08:55:16.180Z,38.10
2022-08-27T08:58:11.235Z,37.75
2022-08-27T09:00:56.589Z,37.30
2022-08-27T09:03:37.015Z,36.84
2022-08-27T09:06:21.581Z,36.45
2022-08-27T09:09:23.705Z,36.13
2022-08-27T09:12:15.898Z,35.73
2022-08-27T09:14:53.974Z,35.27
2022-08-27T09:17:33.868Z,35.00
2022-08-27T09:20:13.405Z,34.81
2022-08-27T09:22:59.244Z,34.60
2022-08-27T09:25:38.019Z,34.46
2022-08-27T09:28:39.005Z,34.26
2022-08-27T09:31:19.010Z,34.09
2022-08-27T09:33:55.789Z,33.99
2022-08-27T09:36:33.540Z,33.92
2022-08-27T09:39:09.935Z,33.85
2022-08-27T09:41:49.851Z,33.82
2022-08-27T09:44:28.943Z,33.79
2022-08-27T09:47:04.836Z,33.73
2022-08-27T09:49:41.967Z,33.67
2022-08-27T09:52:38.030Z,33.66
2022-08-27T09:55:34.477Z,33.64
2022-08-27T09:58:28.024Z,33.62
2022-08-27T10:01:07.348Z,33.69
2022-08-27T10:03:42.653Z,33.91
2022-08-27T10:06:16.272Z,33.99
2022-08-27T10:08:57.988Z,33.95
2022-08-27T10:11:36.302Z,33.88
2022-08-27T10:14:16.643Z,33.99
2022-08-27T10:17:04.088Z,34.11
2022-08-27T10:19:50.275Z,34.03
2022-08-27T10:22:38.371Z,33.95
2022-08-27T10:25:24.873Z,33.96
2022-08-27T10:28:07.152Z,33.92
2022-08-27T10:30:56.404Z,33.77
2022-08-27T10:33:46.690Z,33.63
2022-08-27T10:36:52.459Z,33.55
2022-08-27T10:39:40.563Z,33.52
2022-08-27T10:42:22.359Z,33.58
2022-08-27T10:45:06.036Z,33.59
2022-08-27T10:47:57.425Z,33.55
2022-08-27T10:50:41.189Z,33.58
2022-08-27T10:53:25.923Z,33.60
2022-08-27T10:56:13.907Z,33.66
2022-08-27T10:59:04.867Z,33.65
2022-08-27T11:01:53.868Z,33.71
2022-08-27T11:04:42.870Z,33.72
2022-08-27T11:07:24.293Z,33.66
2022-08-27T11:10:02.397Z,33.65
2022-08-27T11:13:01.242Z,33.66
2022-08-27T11:15:37.931Z,33.71
2022-08-27T11:18:18.129Z,33.81
2022-08-27T11:21:00.141Z,33.88
2022-08-27T11:23:43.849Z,33.72
2022-08-27T11:26:18.453Z,33.70
2022-08-27T11:28:57.591Z,33.83
2022-08-27T11:31:44.258Z,33.94
2022-08-27T11:34:23.957Z,33.99
2022-08-27T11:37:16.222Z,34.04
2022-08-27T11:40:05.933Z,34.14
2022-08-27T11:42:48.907Z,34.27
2022-08-27T11:45:31.322Z,34.39
2022-08-27T11:48:19.128Z,34.46
2022-08-27T11:51:02.626Z,34.51
2022-08-27T11:53:42.786Z,34.60
2022-08-27T11:56:43.539Z,34.60
2022-08-27T11:59:24.683Z,34.50
2022-08-27T12:02:22.902Z,34.42
2022-08-27T12:05:09.094Z,34.34
2022-08-27T12:07:46.528Z,34.30
2022-08-27T12:10:40.323Z,34.28
2022-08-27T12:13:24.729Z,34.32
2022-08-27T12:16:06.703Z,34.53
2022-08-27T12:19:02.797Z,35.49
2022-08-27T12:21:58.228Z,37.36
2022-08-27T12:24:50.401Z,38.38
2022-08-27T12:27:36.697Z,38.20
2022-08-27T12:30:24.759Z,37.57
2022-08-27T12:33:01.397Z,36.69
2022-08-27T12:35:44.778Z,36.08
2022-08-27T12:38:21.829Z,35.90
2022-08-27T12:41:04.065Z,35.77
2022-08-27T12:43:44.042Z,35.52
2022-08-27T12:46:20.827Z,35.42
2022-08-27T12:49:12.750Z,35.42
2022-08-27T12:52:05.046Z,35.49
2022-08-27T12:55:16.244Z,35.40
2022-08-27T12:57:58.436Z,35.27
2022-08-27T13:01:04.304Z,35.24
2022-08-27T13:03:45.116Z,35.30
2022-08-27T13:06:29.097Z,35.43
2022-08-27T13:09:11.329Z,35.29
2022-08-27T13:11:56.289Z,35.22
2022-08-27T13:14:37.971Z,35.13
2022-08-27T13:17:16.609Z,34.96
2022-08-27T13:19:59.423Z,34.59
2022-08-27T13:22:45.211Z,34.52
2022-08-27T13:25:27.936Z,34.58
2022-08-27T13:28:10.317Z,34.60
2022-08-27T13:30:47.011Z,34.50
2022-08-27T13:33:24.085Z,34.49
2022-08-27T13:36:03.928Z,34.54
2022-08-27T13:38:40.979Z,34.58
2022-08-27T13:41:37.081Z,34.59
2022-08-27T13:44:25.919Z,34.52
2022-08-27T13:47:18.876Z,34.44
2022-08-27T13:50:09.245Z,34.44
2022-08-27T13:52:58.739Z,34.35
2022-08-27T13:55:34.004Z,34.26
2022-08-27T13:58:25.388Z,34.26
2022-08-27T14:01:09.037Z,34.16
2022-08-27T14:03:52.631Z,33.93
2022-08-27T14:06:36.008Z,33.80
2022-08-27T14:09:18.513Z,33.72
2022-08-27T14:12:00.293Z,33.83
2022-08-27T14:14:37.971Z,33.94
2022-08-27T14:17:29.813Z,34.05
2022-08-27T14:20:09.302Z,34.13
2022-08-27T14:22:43.001Z,34.23
2022-08-27T14:25:22.476Z,34.34
2022-08-27T14:27:57.600Z,34.39
2022-08-27T14:30:31.784Z,34.37
2022-08-27T14:33:05.527Z,34.30
2022-08-27T14:35:40.007Z,34.11
2022-08-27T14:38:24.037Z,33.99
2022-08-27T14:41:00.000Z,33.82
2022-08-27T14:43:35.079Z,33.79
2022-08-27T14:46:14.161Z,33.82
2022-08-27T14:48:51.651Z,33.84
2022-08-27T14:51:28.237Z,33.78
2022-08-27T14:54:02.260Z,33.74
2022-08-27T14:56:35.640Z,33.62
2022-08-27T14:59:09.336Z,33.57
2022-08-27T15:01:43.141Z,33.49
2022-08-27T15:04:23.014Z,33.44
2022-08-27T15:06:56.884Z,33.38
2022-08-27T15:09:31.426Z,33.42
2022-08-27T15:12:08.293Z,33.47
2022-08-27T15:14:59.729Z,33.49
2022-08-27T15:17:34.998Z,33.44
2022-08-27T15:20:13.712Z,33.43
2022-08-27T15:22:55.284Z,33.41
2022-08-27T15:25:33.778Z,33.33
2022-08-27T15:28:08.233Z,33.30
2022-08-27T15:30:42.526Z,33.26
2022-08-27T15:33:16.226Z,33.26
2022-08-27T15:35:50.444Z,33.28
2022-08-27T15:38:24.102Z,33.28
2022-08-27T15:40:58.200Z,33.29
2022-08-27T15:43:32.092Z,33.27
2022-08-27T15:46:06.465Z,33.22
2022-08-27T15:48:40.483Z,33.15
2022-08-27T15:51:14.991Z,33.06
2022-08-27T15:53:48.320Z,33.02
2022-08-27T15:56:23.841Z,33.04
2022-08-27T15:58:57.668Z,33.05
2022-08-27T16:01:33.782Z,33.06
2022-08-27T16:04:07.947Z,33.06
2022-08-27T16:06:42.394Z,33.06
2022-08-27T16:09:18.952Z,32.98
2022-08-27T16:11:52.330Z,32.82
2022-08-27T16:14:29.096Z,32.75
2022-08-27T16:17:13.402Z,32.61
2022-08-27T16:19:47.157Z,32.50
2022-08-27T16:22:20.937Z,32.42
2022-08-27T16:24:54.708Z,32.36
2022-08-27T16:27:37.917Z,32.32
2022-08-27T16:30:14.460Z,32.27
2022-08-27T16:32:52.495Z,32.21
2022-08-27T16:35:26.150Z,32.11
2022-08-27T16:38:00.072Z,32.06
2022-08-27T16:40:40.489Z,32.00
2022-08-27T16:43:22.941Z,31.93
2022-08-27T16:46:17.577Z,31.88
2022-08-27T16:49:09.001Z,31.80
2022-08-27T16:51:46.436Z,31.73
2022-08-27T16:54:39.901Z,31.66
2022-08-27T16:57:13.876Z,31.59
2022-08-27T16:59:47.383Z,31.52
2022-08-27T17:02:30.557Z,31.47
2022-08-27T17:05:30.539Z,31.40
2022-08-27T17:08:02.452Z,31.32
2022-08-27T17:10:40.280Z,31.23
2022-08-27T17:13:15.904Z,31.16
2022-08-27T17:15:57.583Z,31.08
2022-08-27T17:18:32.306Z,31.02
2022-08-27T17:21:08.638Z,30.94
2022-08-27T17:23:47.832Z,30.86
2022-08-27T17:26:22.066Z,30.81
2022-08-27T17:29:04.254Z,30.73
2022-08-27T17:31:43.224Z,30.67
2022-08-27T17:34:21.257Z,30.61
2022-08-27T17:36:55.388Z,30.53
2022-08-27T17:39:31.267Z,30.46
2022-08-27T17:42:26.426Z,30.40
2022-08-27T17:45:11.023Z,30.31
2022-08-27T17:48:06.146Z,30.21
2022-08-27T17:50:47.728Z,30.13
2022-08-27T17:53:21.457Z,30.08
2022-08-27T17:55:55.676Z,30.03
2022-08-27T17:58:29.596Z,29.97
2022-08-27T18:01:03.587Z,29.88
2022-08-27T18:03:47.582Z,29.81
2022-08-27T18:06:43.222Z,29.72
2022-08-27T18:09:17.025Z,29.64
2022-08-27T18:11:51.430Z,29.57
2022-08-27T18:14:28.374Z,29.52
2022-08-27T18:17:02.002Z,29.47
2022-08-27T18:19:37.820Z,29.38
2022-08-27T18:22:12.105Z,29.29
2022-08-27T18:24:46.424Z,29.23
2022-08-27T18:27:28.124Z,29.18
2022-08-27T18:30:02.489Z,29.13
2022-08-27T18:32:35.850Z,29.08
2022-08-27T18:35:15.384Z,29.02
2022-08-27T18:37:48.858Z,28.97
2022-08-27T18:40:26.230Z,28.93
2022-08-27T18:43:04.150Z,28.87
2022-08-27T18:45:38.158Z,28.81
2022-08-27T18:48:17.030Z,28.73
2022-08-27T18:50:54.782Z,28.69
2022-08-27T18:53:40.056Z,28.65
2022-08-27T18:56:21.339Z,28.58
2022-08-27T18:59:04.603Z,28.52
2022-08-27T19:01:38.027Z,28.47
2022-08-27T19:04:16.861Z,28.42
2022-08-27T19:06:51.031Z,28.36
2022-08-27T19:09:24.849Z,28.34
2022-08-27T19:11:58.542Z,28.31
2022-08-27T19:14:32.709Z,28.29
2022-08-27T19:17:06.741Z,28.24
2022-08-27T19:19:40.162Z,28.20
2022-08-27T19:22:13.751Z,28.15
2022-08-27T19:24:48.182Z,28.12
2022-08-27T19:27:25.118Z,28.06
2022-08-27T19:29:59.738Z,28.03
2022-08-27T19:32:33.477Z,28.00
2022-08-27T19:35:08.348Z,27.99
2022-08-27T19:37:52.588Z,27.97
2022-08-27T19:40:36.531Z,27.95
2022-08-27T19:43:10.853Z,27.93
2022-08-27T19:45:44.990Z,27.91
2022-08-27T19:48:18.679Z,27.89
2022-08-27T19:50:52.511Z,27.88
2022-08-27T19:53:29.523Z,27.86
2022-08-27T19:56:10.444Z,27.83
2022-08-27T19:58:44.979Z,27.80
2022-08-27T20:01:18.973Z,27.77
2022-08-27T20:03:52.661Z,27.75
2022-08-27T20:06:31.978Z,27.75
2022-08-27T20:09:16.059Z,27.70
2022-08-27T20:11:50.919Z,27.66
2022-08-27T20:14:25.351Z,27.61
2022-08-27T20:17:01.749Z,27.59
2022-08-27T20:19:36.360Z,27.55
2022-08-27T20:22:10.085Z,27.52
2022-08-27T20:24:43.383Z,27.47
2022-08-27T20:27:17.007Z,27.42
2022-08-27T20:29:50.681Z,27.40
2022-08-27T20:32:27.993Z,27.37
2022-08-27T20:35:03.525Z,27.33
2022-08-27T20:37:41.982Z,27.28
2022-08-27T20:40:19.736Z,27.27
2022-08-27T20:42:53.637Z,27.25
2022-08-27T20:45:27.994Z,27.18
2022-08-27T20:48:12.459Z,27.13
2022-08-27T20:50:45.995Z,27.08
2022-08-27T20:53:19.747Z,27.03
2022-08-27T20:56:13.626Z,26.97
2022-08-27T20:59:05.092Z,26.92
2022-08-27T21:01:39.339Z,26.90
2022-08-27T21:04:13.096Z,26.85
2022-08-27T21:06:46.820Z,26.80
2022-08-27T21:09:20.112Z,26.77
2022-08-27T21:11:54.147Z,26.75
2022-08-27T21:14:27.856Z,26.72
2022-08-27T21:17:01.707Z,26.67
2022-08-27T21:19:38.562Z,26.62
2022-08-27T21:22:11.948Z,26.60
2022-08-27T21:24:46.617Z,26.56
2022-08-27T21:27:22.230Z,26.53
2022-08-27T21:29:56.191Z,26.51
2022-08-27T21:32:29.862Z,26.48
2022-08-27T21:35:03.193Z,26.45
2022-08-27T21:37:48.517Z,26.44
2022-08-27T21:40:23.153Z,26.42
2022-08-27T21:42:57.991Z,26.39
2022-08-27T21:45:31.850Z,26.36
2022-08-27T21:48:06.067Z,26.35
2022-08-27T21:50:40.298Z,26.33
2022-08-27T21:53:14.077Z,26.32
2022-08-27T21:55:48.671Z,26.28
2022-08-27T21:58:26.878Z,26.24
2022-08-27T22:01:02.085Z,26.19
2022-08-27T22:03:36.932Z,26.19
2022-08-27T22:06:13.650Z,26.18
2022-08-27T22:08:47.648Z,26.19
2022-08-27T22:11:30.787Z,26.18
2022-08-27T22:14:04.571Z,26.11
2022-08-27T22:16:41.120Z,26.12
2022-08-27T22:19:14.719Z,26.12
2022-08-27T22:21:48.442Z,26.13
2022-08-27T22:24:21.998Z,26.12
2022-08-27T22:26:55.913Z,26.08
2022-08-27T22:29:32.053Z,26.08
2022-08-27T22:32:07.990Z,26.05
2022-08-27T22:34:41.513Z,26.00
2022-08-27T22:37:15.114Z,26.00
2022-08-27T22:39:48.995Z,25.98
2022-08-27T22:42:23.291Z,25.96
2022-08-27T22:44:59.427Z,25.93
2022-08-27T22:47:32.906Z,25.86
2022-08-27T22:50:09.367Z,25.81
2022-08-27T22:52:46.798Z,25.78
2022-08-27T22:55:22.256Z,25.76
2022-08-27T22:57:57.069Z,25.73
2022-08-27T23:00:32.148Z,25.70
2022-08-27T23:03:07.418Z,25.66
2022-08-27T23:05:41.982Z,25.66
2022-08-27T23:08:20.088Z,25.63
2022-08-27T23:10:55.186Z,25.56
2022-08-27T23:13:29.980Z,25.48
2022-08-27T23:16:04.565Z,25.42
2022-08-27T23:18:42.071Z,25.42
2022-08-27T23:21:15.786Z,25.38
2022-08-27T23:23:53.367Z,25.29
2022-08-27T23:26:44.858Z,25.16
2022-08-27T23:29:18.546Z,25.02
2022-08-27T23:31:52.723Z,24.98
2022-08-27T23:34:26.399Z,24.90
2022-08-27T23:36:59.971Z,24.79
2022-08-27T23:39:33.699Z,24.83
2022-08-27T23:42:08.259Z,24.86
2022-08-27T23:44:42.069Z,24.86
2022-08-27T23:47:18.556Z,24.85
2022-08-27T23:49:52.339Z,24.84
2022-08-27T23:52:25.950Z,24.87
2022-08-27T23:54:59.818Z,24.77
2022-08-27T23:57:58.006Z,24.74
